Terminal Aerodrome Forecast
Issued by NWS Lake Charles, LA

Home | Current Version | Previous Version | Text Only | Print | Product List | Glossary On
Versions: 1 2 3 4 5 6 7 8 9 10 11 12 13 14 15 16 17 18 19 20 21
858
FTUS44 KLCH 221738
TAFLFT
TAF
KLFT 221738Z 2218/2318 06008KT P6SM -RA VCTS FEW005CB OVC008
     FM222100 09008KT P6SM VCSH OVC012
     FM222300 14007KT P6SM VCSH BKN008 OVC015
      TEMPO 2301/2304 2SM +TSRA OVC006CB
     FM230400 16009KT 5SM BR VCSH OVC004
     FM231200 32006KT 3SM BR VCSH OVC003=

USA.gov is the U.S. government's official web portal to all federal, state and local government web resources and services.